createdAt,value
2019-03-11T00:00:47.002Z,11.50
2019-03-11T00:05:45.153Z,11.60
2019-03-11T00:10:40.921Z,11.60
2019-03-11T00:15:36.940Z,11.50
2019-03-11T00:20:33.236Z,11.40
2019-03-11T00:25:29.137Z,11.50
2019-03-11T00:30:24.967Z,11.50
2019-03-11T00:35:20.889Z,11.50
2019-03-11T00:40:16.725Z,11.40
2019-03-11T00:45:12.715Z,11.40
2019-03-11T00:50:09.542Z,11.50
2019-03-11T00:55:05.652Z,11.50
2019-03-11T01:00:01.542Z,11.50
2019-03-11T01:04:57.708Z,11.40
2019-03-11T01:09:53.500Z,11.60
2019-03-11T01:14:49.310Z,11.70
2019-03-11T01:19:45.191Z,11.70
2019-03-11T01:24:41.062Z,11.60
2019-03-11T01:29:36.895Z,11.60
2019-03-11T01:34:32.752Z,11.60
2019-03-11T01:39:28.606Z,11.60
2019-03-11T01:44:24.320Z,11.60
2019-03-11T01:49:24.072Z,11.40
2019-03-11T01:54:20.901Z,11.40
2019-03-11T01:59:16.917Z,11.30
2019-03-11T02:04:13.879Z,11.00
2019-03-11T02:09:13.065Z,10.80
2019-03-11T02:14:08.815Z,10.70
2019-03-11T02:19:04.495Z,10.70
2019-03-11T02:24:02.972Z,10.60
2019-03-11T02:28:58.976Z,10.50
2019-03-11T02:33:55.785Z,10.40
2019-03-11T02:38:51.661Z,10.40
2019-03-11T02:43:47.431Z,10.20
2019-03-11T02:48:43.130Z,10.10
2019-03-11T02:53:38.882Z,10.10
2019-03-11T02:58:34.676Z,10.00
2019-03-11T03:03:49.644Z,9.80
2019-03-11T03:08:45.495Z,9.80
2019-03-11T03:13:41.210Z,9.70
2019-03-11T03:18:36.926Z,9.60
2019-03-11T03:23:32.687Z,9.70
2019-03-11T03:28:28.691Z,9.70
2019-03-11T03:33:24.477Z,9.60
2019-03-11T03:38:30.655Z,9.50
2019-03-11T03:43:19.571Z,9.50
2019-03-11T03:48:15.861Z,9.50
2019-03-11T03:53:14.132Z,9.40
2019-03-11T03:58:09.872Z,9.40
2019-03-11T04:03:08.982Z,9.40
2019-03-11T04:08:04.861Z,9.40
2019-03-11T04:13:00.524Z,9.40
2019-03-11T04:17:56.515Z,9.20
2019-03-11T04:22:52.376Z,9.10
2019-03-11T04:27:48.243Z,9.10
2019-03-11T04:32:43.885Z,9.00
2019-03-11T04:37:39.748Z,9.00
2019-03-11T04:42:35.635Z,8.90
2019-03-11T04:47:31.463Z,8.90
2019-03-11T04:52:27.204Z,8.90
2019-03-11T04:57:23.582Z,8.80
2019-03-11T05:02:19.430Z,8.90
2019-03-11T05:07:15.185Z,8.80
2019-03-11T05:12:12.744Z,8.70
2019-03-11T05:17:08.627Z,8.60
2019-03-11T05:22:06.945Z,8.70
2019-03-11T05:27:02.868Z,8.60
2019-03-11T05:31:58.604Z,8.60
2019-03-11T05:36:54.405Z,8.60
2019-03-11T05:41:50.148Z,8.70
2019-03-11T05:46:47.103Z,8.60
2019-03-11T05:51:42.795Z,8.60
2019-03-11T05:56:38.787Z,8.70
2019-03-11T06:01:34.983Z,8.60
2019-03-11T06:06:30.808Z,8.50
2019-03-11T06:11:26.679Z,8.50
2019-03-11T06:16:23.556Z,8.40
2019-03-11T06:21:24.351Z,8.50
2019-03-11T06:26:20.193Z,8.50
2019-03-11T06:31:16.144Z,8.40
2019-03-11T06:36:12.010Z,8.30
2019-03-11T06:41:08.069Z,8.30
2019-03-11T06:46:03.960Z,8.30
2019-03-11T06:50:59.690Z,8.20
2019-03-11T06:55:56.591Z,8.10
2019-03-11T07:00:52.705Z,8.10
2019-03-11T07:05:49.609Z,8.10
2019-03-11T07:10:46.236Z,8.20
2019-03-11T07:15:42.202Z,8.30
2019-03-11T07:20:37.972Z,8.50
2019-03-11T07:25:33.907Z,8.70
2019-03-11T07:30:29.714Z,8.80
2019-03-11T07:35:25.589Z,8.80
2019-03-11T07:40:29.756Z,8.80
2019-03-11T07:45:18.958Z,8.90
2019-03-11T07:50:17.355Z,9.00
2019-03-11T07:55:15.459Z,9.30
2019-03-11T08:00:11.722Z,9.50
2019-03-11T08:05:08.564Z,9.70
2019-03-11T08:10:04.814Z,9.70
2019-03-11T08:14:58.828Z,9.90
2019-03-11T08:19:52.771Z,9.80
2019-03-11T08:24:46.666Z,9.80
2019-03-11T08:29:40.617Z,9.90
2019-03-11T08:34:37.396Z,10.10
2019-03-11T08:39:33.222Z,10.30
2019-03-11T08:44:29.016Z,10.50
2019-03-11T08:49:24.861Z,10.60
2019-03-11T08:54:20.576Z,10.80
2019-03-11T08:59:16.712Z,11.00
2019-03-11T09:04:14.851Z,11.10
2019-03-11T09:09:13.078Z,11.20
2019-03-11T09:14:08.828Z,11.00
2019-03-11T09:19:04.664Z,11.00
2019-03-11T09:24:00.419Z,11.00
2019-03-11T09:28:59.307Z,10.90
2019-03-11T09:33:55.045Z,11.30
2019-03-11T09:38:52.783Z,11.70
2019-03-11T09:43:48.365Z,11.80
2019-03-11T09:48:47.748Z,11.80
2019-03-11T09:53:43.546Z,11.90
2019-03-11T09:58:40.772Z,11.90
2019-03-11T10:03:36.540Z,11.80
2019-03-11T10:08:32.273Z,12.00
2019-03-11T10:13:28.020Z,12.00
2019-03-11T10:18:23.752Z,12.00
2019-03-11T10:23:19.655Z,12.40
2019-03-11T10:28:16.870Z,12.70
2019-03-11T10:33:12.732Z,12.50
2019-03-11T10:38:08.552Z,12.60
2019-03-11T10:43:06.559Z,12.50
2019-03-11T10:48:02.717Z,12.80
2019-03-11T10:52:58.470Z,12.90
2019-03-11T10:57:55.137Z,13.00
2019-03-11T11:02:50.929Z,13.30
2019-03-11T11:07:47.959Z,13.30
2019-03-11T11:12:43.730Z,13.00
2019-03-11T11:17:39.799Z,13.10
2019-03-11T11:22:35.533Z,13.20
2019-03-11T11:27:31.274Z,13.20
2019-03-11T11:32:26.997Z,13.40
2019-03-11T11:37:22.988Z,13.90
2019-03-11T11:42:18.714Z,13.80
2019-03-11T11:47:14.694Z,14.00
2019-03-11T11:52:11.298Z,14.50
2019-03-11T11:57:07.451Z,14.30
2019-03-11T12:02:05.160Z,14.20
2019-03-11T12:07:01.403Z,13.90
2019-03-11T12:11:57.192Z,13.60
2019-03-11T12:16:54.729Z,13.40
2019-03-11T12:21:50.515Z,13.30
2019-03-11T12:26:49.382Z,12.40
2019-03-11T12:31:45.213Z,11.00
2019-03-11T12:36:42.154Z,10.60
2019-03-11T12:41:37.910Z,10.60
2019-03-11T12:46:33.845Z,10.10
2019-03-11T12:51:29.697Z,10.00
2019-03-11T12:56:27.083Z,9.70
2019-03-11T13:01:22.820Z,9.50
2019-03-11T13:06:23.479Z,9.30
2019-03-11T13:11:19.308Z,9.30
2019-03-11T13:16:15.235Z,9.20
2019-03-11T13:21:31.949Z,9.10
2019-03-11T13:26:30.086Z,9.10
2019-03-11T13:31:25.926Z,9.10
2019-03-11T13:36:21.728Z,9.10
2019-03-11T13:41:17.956Z,9.10
2019-03-11T13:46:14.353Z,9.00
2019-03-11T13:51:10.459Z,9.00
2019-03-11T13:56:06.442Z,9.10
2019-03-11T14:01:02.799Z,9.10
2019-03-11T14:05:58.795Z,9.00
2019-03-11T14:10:54.850Z,9.00
2019-03-11T14:15:50.719Z,8.90
2019-03-11T14:20:48.095Z,8.90
2019-03-11T14:25:44.088Z,8.80
2019-03-11T14:30:39.797Z,8.70
2019-03-11T14:35:37.167Z,8.70
2019-03-11T14:40:32.956Z,8.70
2019-03-11T14:45:28.904Z,8.70
2019-03-11T14:50:27.694Z,8.70
2019-03-11T14:55:23.755Z,8.90
2019-03-11T15:00:19.869Z,8.90
2019-03-11T15:05:17.904Z,8.90
2019-03-11T15:10:15.342Z,8.90
2019-03-11T15:15:13.207Z,8.80
2019-03-11T15:20:09.225Z,8.70
2019-03-11T15:25:05.655Z,8.70
2019-03-11T15:30:01.679Z,8.60
2019-03-11T15:34:57.441Z,8.60
2019-03-11T15:39:53.162Z,8.50
2019-03-11T15:44:48.926Z,8.40
2019-03-11T15:49:44.722Z,8.40
2019-03-11T15:54:40.625Z,8.20
2019-03-11T15:59:36.513Z,8.10
2019-03-11T16:04:32.505Z,8.00
2019-03-11T16:09:28.542Z,7.90
2019-03-11T16:14:24.374Z,7.80
2019-03-11T16:19:20.861Z,7.80
2019-03-11T16:24:16.624Z,7.70
2019-03-11T16:29:12.373Z,7.50
2019-03-11T16:34:08.208Z,7.40
2019-03-11T16:39:05.090Z,7.30
2019-03-11T16:44:02.402Z,7.20
2019-03-11T16:48:58.215Z,7.00
2019-03-11T16:53:54.688Z,6.90
2019-03-11T16:58:52.083Z,6.80
2019-03-11T17:03:47.836Z,6.70
2019-03-11T17:08:43.668Z,6.60
2019-03-11T17:13:39.365Z,6.60
2019-03-11T17:18:35.132Z,6.50
2019-03-11T17:23:31.257Z,6.50
2019-03-11T17:28:27.563Z,6.50
2019-03-11T17:33:24.149Z,6.50
2019-03-11T17:38:20.743Z,6.40
2019-03-11T17:43:17.113Z,6.40
2019-03-11T17:48:13.994Z,6.30
2019-03-11T17:53:19.477Z,6.30
2019-03-11T17:58:07.843Z,6.20
2019-03-11T18:03:03.851Z,6.20
2019-03-11T18:07:59.709Z,6.20
2019-03-11T18:12:55.495Z,6.20
2019-03-11T18:17:51.393Z,6.10
2019-03-11T18:22:47.300Z,6.10
2019-03-11T18:27:43.128Z,6.10
2019-03-11T18:32:38.811Z,6.00
2019-03-11T18:37:35.987Z,6.00
2019-03-11T18:42:32.284Z,6.00
2019-03-11T18:47:28.501Z,6.00
2019-03-11T18:52:24.973Z,6.10
2019-03-11T18:57:24.982Z,6.00
2019-03-11T19:02:23.355Z,5.70
2019-03-11T19:07:19.753Z,5.60
2019-03-11T19:12:15.521Z,5.50
2019-03-11T19:17:11.465Z,5.40
2019-03-11T19:22:07.687Z,5.30
2019-03-11T19:27:03.730Z,5.30
2019-03-11T19:31:59.979Z,5.30
2019-03-11T19:36:57.278Z,5.30
2019-03-11T19:41:54.572Z,5.30
2019-03-11T19:46:54.687Z,5.30
2019-03-11T19:51:51.457Z,5.30
2019-03-11T19:56:47.380Z,5.30
2019-03-11T20:01:43.340Z,5.20
2019-03-11T20:06:39.231Z,5.20
2019-03-11T20:11:35.558Z,5.20
2019-03-11T20:16:31.480Z,5.10
2019-03-11T20:21:27.506Z,5.10
2019-03-11T20:26:23.664Z,5.10
2019-03-11T20:31:19.899Z,5.00
2019-03-11T20:36:20.657Z,4.90
2019-03-11T20:41:14.931Z,4.90
2019-03-11T20:46:14.669Z,4.80
2019-03-11T20:51:10.606Z,4.80
2019-03-11T20:56:06.409Z,4.70
2019-03-11T21:01:03.651Z,4.80
2019-03-11T21:06:03.986Z,4.80
2019-03-11T21:11:01.081Z,4.80
2019-03-11T21:15:58.210Z,4.80
2019-03-11T21:21:04.123Z,4.70
2019-03-11T21:25:52.421Z,4.70
2019-03-11T21:30:50.282Z,4.70
2019-03-11T21:35:46.371Z,4.60
2019-03-11T21:40:42.312Z,4.60
2019-03-11T21:45:41.206Z,4.60
2019-03-11T21:50:38.565Z,4.60
2019-03-11T21:55:34.385Z,4.50
2019-03-11T22:00:34.454Z,4.50
2019-03-11T22:05:27.671Z,4.50
2019-03-11T22:10:23.538Z,4.40
2019-03-11T22:15:19.328Z,4.40
2019-03-11T22:20:15.963Z,4.30
2019-03-11T22:25:13.057Z,4.30
2019-03-11T22:30:12.373Z,4.30
2019-03-11T22:35:12.958Z,4.40
2019-03-11T22:40:09.376Z,4.40
2019-03-11T22:45:07.857Z,4.30
2019-03-11T22:50:03.612Z,4.20
2019-03-11T22:55:08.131Z,4.10
2019-03-11T23:00:06.861Z,4.10
2019-03-11T23:05:04.289Z,4.10
2019-03-11T23:10:00.405Z,4.10
2019-03-11T23:14:56.165Z,4.10
2019-03-11T23:19:51.880Z,4.00
2019-03-11T23:24:47.567Z,3.90
2019-03-11T23:29:46.264Z,3.80
2019-03-11T23:34:42.061Z,3.70
2019-03-11T23:39:38.016Z,3.50
2019-03-11T23:44:33.823Z,3.30
2019-03-11T23:49:29.642Z,3.10
2019-03-11T23:54:25.441Z,3.00
2019-03-11T23:59:21.308Z,2.80
